Santa Rosa de Rio Primero, Argentina
Current Conditions -  °F | °C
As of 2:00 AM on Saturday 01 Nov 2014 (Local Time) from SACO Reporting Station
Moderate Rain Moderate Rain  
Wind Chill: 13°   Ceiling: Unl
Heat Index: 13°   Visibility: 2.5mi
Dew Point: 11°   Wind: 12mph
Humidity: 88%   Direction: 200°SSW
Pressure: 30.12"   Gusts: NA
Location:  31.15°S, 63.38°W
Report Text: SACO 010500Z 20010KT 4000 RA SCT008SCT012 13/11 Q1020
Loading
Personal Weather Stations






























Interactive Weather Map
Tropical Storm Tracking
New forecast layout! Learn more

10-Day Weather Forecast

Advertisements
Track Severe Weather on mobile